sensor_id;sensor_type;location;lat;lon;timestamp;pressure;altitude;pressure_sealevel;temperature;humidity
70133;BME280;57495;49.922;7.966;2022-08-01T00:01:51;99907.81;;;23.14;56.42
70133;BME280;57495;49.922;7.966;2022-08-01T00:03:52;99907.34;;;23.17;56.59
70133;BME280;57495;49.922;7.966;2022-08-01T00:05:55;99912.91;;;23.10;56.73
70133;BME280;57495;49.922;7.966;2022-08-01T00:07:56;99906.16;;;23.13;56.82
70133;BME280;57495;49.922;7.966;2022-08-01T00:09:58;99907.06;;;23.07;57.09
70133;BME280;57495;49.922;7.966;2022-08-01T00:11:59;99913.78;;;23.04;57.10
70133;BME280;57495;49.922;7.966;2022-08-01T00:14:00;99915.06;;;22.83;57.77
70133;BME280;57495;49.922;7.966;2022-08-01T00:16:02;99918.53;;;22.90;57.52
70133;BME280;57495;49.922;7.966;2022-08-01T00:18:04;99919.00;;;22.87;57.78
70133;BME280;57495;49.922;7.966;2022-08-01T00:20:07;99921.44;;;22.95;57.51
70133;BME280;57495;49.922;7.966;2022-08-01T00:22:10;99914.06;;;22.77;58.02
70133;BME280;57495;49.922;7.966;2022-08-01T00:24:12;99916.41;;;22.74;58.23
70133;BME280;57495;49.922;7.966;2022-08-01T00:26:14;99921.25;;;22.72;58.32
70133;BME280;57495;49.922;7.966;2022-08-01T00:28:15;99919.50;;;22.77;58.31
70133;BME280;57495;49.922;7.966;2022-08-01T00:30:16;99919.28;;;22.79;58.13
70133;BME280;57495;49.922;7.966;2022-08-01T00:32:18;99917.00;;;22.76;58.29
70133;BME280;57495;49.922;7.966;2022-08-01T00:34:19;99921.81;;;22.81;58.07
70133;BME280;57495;49.922;7.966;2022-08-01T00:36:21;99917.69;;;22.71;58.56
70133;BME280;57495;49.922;7.966;2022-08-01T00:38:24;99920.88;;;22.68;58.75
70133;BME280;57495;49.922;7.966;2022-08-01T00:40:25;99914.13;;;22.71;58.55
70133;BME280;57495;49.922;7.966;2022-08-01T00:42:26;99913.75;;;22.67;58.89
70133;BME280;57495;49.922;7.966;2022-08-01T00:44:28;99918.34;;;22.67;58.76
70133;BME280;57495;49.922;7.966;2022-08-01T00:46:29;99924.56;;;22.55;59.12
70133;BME280;57495;49.922;7.966;2022-08-01T00:48:31;99923.91;;;22.60;59.09
70133;BME280;57495;49.922;7.966;2022-08-01T00:50:32;99918.31;;;22.48;59.48
70133;BME280;57495;49.922;7.966;2022-08-01T00:52:34;99925.47;;;22.49;59.63
70133;BME280;57495;49.922;7.966;2022-08-01T00:54:38;99921.06;;;22.48;59.56
70133;BME280;57495;49.922;7.966;2022-08-01T00:56:40;99921.50;;;22.45;59.84
70133;BME280;57495;49.922;7.966;2022-08-01T00:58:42;99930.34;;;22.41;60.04
70133;BME280;57495;49.922;7.966;2022-08-01T01:00:43;99921.56;;;22.38;60.01
70133;BME280;57495;49.922;7.966;2022-08-01T01:02:45;99926.00;;;22.33;60.21
70133;BME280;57495;49.922;7.966;2022-08-01T01:04:46;99932.47;;;22.38;59.99
70133;BME280;57495;49.922;7.966;2022-08-01T01:06:53;99921.94;;;22.42;59.83
70133;BME280;57495;49.922;7.966;2022-08-01T01:09:05;99934.38;;;22.38;60.10
70133;BME280;57495;49.922;7.966;2022-08-01T01:11:21;99936.75;;;22.28;60.33
70133;BME280;57495;49.922;7.966;2022-08-01T01:13:31;99934.78;;;22.35;60.16
70133;BME280;57495;49.922;7.966;2022-08-01T01:15:40;99936.75;;;22.28;60.39
70133;BME280;57495;49.922;7.966;2022-08-01T01:17:46;99936.75;;;22.28;60.37
70133;BME280;57495;49.922;7.966;2022-08-01T01:19:51;99940.97;;;22.17;60.88
70133;BME280;57495;49.922;7.966;2022-08-01T01:22:17;99933.88;;;22.16;60.78
70133;BME280;57495;49.922;7.966;2022-08-01T01:24:28;99934.69;;;22.16;60.81
70133;BME280;57495;49.922;7.966;2022-08-01T01:26:40;99933.25;;;22.14;60.90
70133;BME280;57495;49.922;7.966;2022-08-01T01:29:02;99930.75;;;22.12;60.95
70133;BME280;57495;49.922;7.966;2022-08-01T01:31:06;99935.00;;;22.08;61.13
70133;BME280;57495;49.922;7.966;2022-08-01T01:33:10;99937.75;;;22.01;61.39
70133;BME280;57495;49.922;7.966;2022-08-01T01:35:15;99936.31;;;21.99;61.42
70133;BME280;57495;49.922;7.966;2022-08-01T01:37:20;99937.97;;;22.00;61.30
70133;BME280;57495;49.922;7.966;2022-08-01T01:39:24;99941.34;;;21.95;61.63
70133;BME280;57495;49.922;7.966;2022-08-01T01:41:28;99939.88;;;21.93;61.35
70133;BME280;57495;49.922;7.966;2022-08-01T01:43:30;99937.00;;;21.88;61.76
70133;BME280;57495;49.922;7.966;2022-08-01T01:45:35;99943.28;;;21.88;61.79
70133;BME280;57495;49.922;7.966;2022-08-01T01:47:38;99951.44;;;21.88;61.82
70133;BME280;57495;49.922;7.966;2022-08-01T01:49:44;99946.91;;;21.75;62.22
70133;BME280;57495;49.922;7.966;2022-08-01T01:51:47;99942.09;;;21.77;62.05
70133;BME280;57495;49.922;7.966;2022-08-01T01:53:51;99947.13;;;21.74;62.60
70133;BME280;57495;49.922;7.966;2022-08-01T01:55:55;99944.63;;;21.72;62.48
70133;BME280;57495;49.922;7.966;2022-08-01T01:57:59;99947.53;;;21.77;62.28
70133;BME280;57495;49.922;7.966;2022-08-01T02:00:01;99949.72;;;21.62;62.76
70133;BME280;57495;49.922;7.966;2022-08-01T02:02:06;99949.88;;;21.67;62.56
70133;BME280;57495;49.922;7.966;2022-08-01T02:04:09;99942.84;;;21.53;63.10
70133;BME280;57495;49.922;7.966;2022-08-01T02:06:13;99946.41;;;21.47;63.39
70133;BME280;57495;49.922;7.966;2022-08-01T02:08:16;99949.38;;;21.38;63.49
70133;BME280;57495;49.922;7.966;2022-08-01T02:10:19;99948.97;;;21.35;63.83
70133;BME280;57495;49.922;7.966;2022-08-01T02:12:21;99945.81;;;21.45;63.26
70133;BME280;57495;49.922;7.966;2022-08-01T02:14:23;99948.94;;;21.41;63.35
70133;BME280;57495;49.922;7.966;2022-08-01T02:16:27;99947.47;;;21.39;63.46
70133;BME280;57495;49.922;7.966;2022-08-01T02:18:31;99950.25;;;21.19;64.12
70133;BME280;57495;49.922;7.966;2022-08-01T02:20:34;99953.03;;;21.05;64.22
70133;BME280;57495;49.922;7.966;2022-08-01T02:22:41;99953.69;;;20.94;64.68
70133;BME280;57495;49.922;7.966;2022-08-01T02:24:49;99949.06;;;20.95;64.36
70133;BME280;57495;49.922;7.966;2022-08-01T02:26:52;99948.28;;;20.81;65.16
70133;BME280;57495;49.922;7.966;2022-08-01T02:28:57;99944.50;;;20.82;65.10
70133;BME280;57495;49.922;7.966;2022-08-01T02:31:03;99951.41;;;20.78;65.29
70133;BME280;57495;49.922;7.966;2022-08-01T02:33:08;99941.78;;;20.82;64.91
70133;BME280;57495;49.922;7.966;2022-08-01T02:35:18;99946.19;;;20.83;65.02
70133;BME280;57495;49.922;7.966;2022-08-01T02:37:21;99947.66;;;20.79;65.20
70133;BME280;57495;49.922;7.966;2022-08-01T02:39:26;99951.84;;;20.75;65.24
70133;BME280;57495;49.922;7.966;2022-08-01T02:41:30;99957.06;;;20.56;66.07
70133;BME280;57495;49.922;7.966;2022-08-01T02:43:34;99949.53;;;20.58;65.56
70133;BME280;57495;49.922;7.966;2022-08-01T02:45:42;99948.66;;;20.58;65.80
70133;BME280;57495;49.922;7.966;2022-08-01T02:47:45;99952.66;;;20.69;65.71
70133;BME280;57495;49.922;7.966;2022-08-01T02:49:52;99946.41;;;20.75;65.42
70133;BME280;57495;49.922;7.966;2022-08-01T02:51:57;99938.88;;;20.70;65.67
70133;BME280;57495;49.922;7.966;2022-08-01T02:54:01;99939.50;;;20.72;65.56
70133;BME280;57495;49.922;7.966;2022-08-01T02:56:05;99935.31;;;20.70;65.32
70133;BME280;57495;49.922;7.966;2022-08-01T02:58:08;99947.22;;;20.55;66.09
70133;BME280;57495;49.922;7.966;2022-08-01T03:00:11;99950.97;;;20.54;66.33
70133;BME280;57495;49.922;7.966;2022-08-01T03:02:13;99948.72;;;20.64;65.84
70133;BME280;57495;49.922;7.966;2022-08-01T03:04:17;99944.50;;;20.55;66.20
70133;BME280;57495;49.922;7.966;2022-08-01T03:06:19;99944.91;;;20.59;66.05
70133;BME280;57495;49.922;7.966;2022-08-01T03:08:23;99939.47;;;20.59;66.41
70133;BME280;57495;49.922;7.966;2022-08-01T03:10:26;99950.19;;;20.60;66.10
70133;BME280;57495;49.922;7.966;2022-08-01T03:12:29;99940.75;;;20.16;67.60
70133;BME280;57495;49.922;7.966;2022-08-01T03:14:35;99949.53;;;20.25;67.39
70133;BME280;57495;49.922;7.966;2022-08-01T03:16:38;99944.50;;;20.42;67.00
70133;BME280;57495;49.922;7.966;2022-08-01T03:18:43;99939.09;;;20.42;66.92
70133;BME280;57495;49.922;7.966;2022-08-01T03:20:46;99944.94;;;20.25;67.40
70133;BME280;57495;49.922;7.966;2022-08-01T03:22:48;99937.81;;;20.11;67.84
70133;BME280;57495;49.922;7.966;2022-08-01T03:24:53;99944.09;;;20.18;68.01
70133;BME280;57495;49.922;7.966;2022-08-01T03:26:56;99941.16;;;20.13;67.91
70133;BME280;57495;49.922;7.966;2022-08-01T03:29:02;99943.63;;;20.08;67.87
70133;BME280;57495;49.922;7.966;2022-08-01T03:31:06;99943.25;;;20.04;68.34
70133;BME280;57495;49.922;7.966;2022-08-01T03:33:08;99946.16;;;20.09;68.16
70133;BME280;57495;49.922;7.966;2022-08-01T03:35:10;99950.13;;;19.94;68.48
70133;BME280;57495;49.922;7.966;2022-08-01T03:37:14;99954.06;;;19.91;68.96
70133;BME280;57495;49.922;7.966;2022-08-01T03:39:20;99955.28;;;19.82;68.93
70133;BME280;57495;49.922;7.966;2022-08-01T03:41:34;99954.84;;;19.78;69.28
70133;BME280;57495;49.922;7.966;2022-08-01T03:43:41;99959.47;;;19.78;69.09
70133;BME280;57495;49.922;7.966;2022-08-01T03:45:47;99960.44;;;19.70;69.38
70133;BME280;57495;49.922;7.966;2022-08-01T03:47:53;99960.28;;;19.78;69.08
70133;BME280;57495;49.922;7.966;2022-08-01T03:49:57;99959.06;;;19.87;68.78
70133;BME280;57495;49.922;7.966;2022-08-01T03:52:01;99953.84;;;19.86;68.85
70133;BME280;57495;49.922;7.966;2022-08-01T03:54:05;99957.81;;;19.97;68.28
70133;BME280;57495;49.922;7.966;2022-08-01T03:56:08;99954.09;;;19.98;67.94
70133;BME280;57495;49.922;7.966;2022-08-01T03:58:12;99960.34;;;19.92;68.29
70133;BME280;57495;49.922;7.966;2022-08-01T04:00:14;99957.81;;;19.83;68.35
70133;BME280;57495;49.922;7.966;2022-08-01T04:02:19;99954.47;;;19.81;68.51
70133;BME280;57495;49.922;7.966;2022-08-01T04:04:21;99964.06;;;19.77;68.81
70133;BME280;57495;49.922;7.966;2022-08-01T04:06:22;99959.44;;;19.71;69.53
70133;BME280;57495;49.922;7.966;2022-08-01T04:08:34;99966.06;;;19.68;69.47
70133;BME280;57495;49.922;7.966;2022-08-01T04:10:36;99963.56;;;19.67;69.86
70133;BME280;57495;49.922;7.966;2022-08-01T04:12:38;99961.75;;;19.74;69.66
70133;BME280;57495;49.922;7.966;2022-08-01T04:14:41;99960.09;;;19.73;69.76
70133;BME280;57495;49.922;7.966;2022-08-01T04:16:42;99960.72;;;19.75;70.14
70133;BME280;57495;49.922;7.966;2022-08-01T04:18:43;99955.91;;;19.77;69.87
70133;BME280;57495;49.922;7.966;2022-08-01T04:20:46;99963.75;;;19.65;70.72
70133;BME280;57495;49.922;7.966;2022-08-01T04:22:47;99964.41;;;19.67;70.84
70133;BME280;57495;49.922;7.966;2022-08-01T04:24:52;99962.31;;;19.63;70.90
70133;BME280;57495;49.922;7.966;2022-08-01T04:26:56;99963.56;;;19.60;71.18
70133;BME280;57495;49.922;7.966;2022-08-01T04:29:00;99967.31;;;19.59;71.33
70133;BME280;57495;49.922;7.966;2022-08-01T04:31:06;99976.09;;;19.68;71.08
70133;BME280;57495;49.922;7.966;2022-08-01T04:33:10;99976.94;;;19.68;71.22
70133;BME280;57495;49.922;7.966;2022-08-01T04:35:13;99983.69;;;19.79;70.74
70133;BME280;57495;49.922;7.966;2022-08-01T04:37:18;99986.19;;;19.87;70.09
70133;BME280;57495;49.922;7.966;2022-08-01T04:39:23;99981.59;;;19.81;70.54
70133;BME280;57495;49.922;7.966;2022-08-01T04:41:27;99986.41;;;19.79;70.72
70133;BME280;57495;49.922;7.966;2022-08-01T04:43:30;99993.66;;;19.72;71.21
70133;BME280;57495;49.922;7.966;2022-08-01T04:45:32;99993.09;;;19.83;70.58
70133;BME280;57495;49.922;7.966;2022-08-01T04:47:36;99993.84;;;19.64;71.64
70133;BME280;57495;49.922;7.966;2022-08-01T04:49:38;99993.22;;;19.68;71.66
70133;BME280;57495;49.922;7.966;2022-08-01T04:51:50;99998.09;;;19.80;71.30
70133;BME280;57495;49.922;7.966;2022-08-01T04:53:52;99992.38;;;19.68;71.76
70133;BME280;57495;49.922;7.966;2022-08-01T04:55:53;99991.03;;;19.50;72.99
70133;BME280;57495;49.922;7.966;2022-08-01T04:57:55;99997.28;;;19.44;73.20
70133;BME280;57495;49.922;7.966;2022-08-01T04:59:57;100001.38;;;19.27;74.07
70133;BME280;57495;49.922;7.966;2022-08-01T05:01:58;100001.94;;;19.16;74.30
70133;BME280;57495;49.922;7.966;2022-08-01T05:04:01;100003.22;;;19.26;73.75
70133;BME280;57495;49.922;7.966;2022-08-01T05:06:03;100000.97;;;19.30;73.53
70133;BME280;57495;49.922;7.966;2022-08-01T05:08:04;100008.97;;;19.10;74.75
70133;BME280;57495;49.922;7.966;2022-08-01T05:10:07;100006.47;;;19.08;74.80
70133;BME280;57495;49.922;7.966;2022-08-01T05:12:09;100004.41;;;19.10;74.68
70133;BME280;57495;49.922;7.966;2022-08-01T05:14:11;100004.78;;;19.42;73.53
70133;BME280;57495;49.922;7.966;2022-08-01T05:16:12;100012.75;;;19.50;73.04
70133;BME280;57495;49.922;7.966;2022-08-01T05:18:13;100012.84;;;19.64;72.63
70133;BME280;57495;49.922;7.966;2022-08-01T05:20:16;100010.72;;;19.59;72.85
70133;BME280;57495;49.922;7.966;2022-08-01T05:22:17;100016.56;;;19.63;72.77
70133;BME280;57495;49.922;7.966;2022-08-01T05:24:19;100017.50;;;19.83;72.15
70133;BME280;57495;49.922;7.966;2022-08-01T05:26:20;100020.78;;;19.72;73.32
70133;BME280;57495;49.922;7.966;2022-08-01T05:28:22;100020.47;;;19.88;72.36
70133;BME280;57495;49.922;7.966;2022-08-01T05:30:23;100013.34;;;19.87;72.66
70133;BME280;57495;49.922;7.966;2022-08-01T05:32:24;100014.63;;;19.92;73.58
70133;BME280;57495;49.922;7.966;2022-08-01T05:34:26;100018.88;;;20.27;71.44
70133;BME280;57495;49.922;7.966;2022-08-01T05:36:29;100021.38;;;20.22;71.94
70133;BME280;57495;49.922;7.966;2022-08-01T05:38:30;100017.34;;;19.92;72.75
70133;BME280;57495;49.922;7.966;2022-08-01T05:40:32;100021.13;;;20.04;73.01
70133;BME280;57495;49.922;7.966;2022-08-01T05:42:33;100023.41;;;19.94;72.99
70133;BME280;57495;49.922;7.966;2022-08-01T05:44:35;100026.78;;;20.09;72.54
70133;BME280;57495;49.922;7.966;2022-08-01T05:46:36;100024.72;;;20.18;72.02
70133;BME280;57495;49.922;7.966;2022-08-01T05:48:38;100035.59;;;20.31;71.68
70133;BME280;57495;49.922;7.966;2022-08-01T05:50:39;100026.41;;;20.25;71.94
70133;BME280;57495;49.922;7.966;2022-08-01T05:52:42;100024.94;;;20.23;71.99
70133;BME280;57495;49.922;7.966;2022-08-01T05:54:44;100024.31;;;20.27;71.88
70133;BME280;57495;49.922;7.966;2022-08-01T05:56:45;100026.00;;;20.28;70.96
70133;BME280;57495;49.922;7.966;2022-08-01T05:58:47;100023.72;;;20.45;70.00
70133;BME280;57495;49.922;7.966;2022-08-01T06:00:48;100024.34;;;20.54;71.01
70133;BME280;57495;49.922;7.966;2022-08-01T06:02:49;100028.16;;;20.66;71.67
70133;BME280;57495;49.922;7.966;2022-08-01T06:04:51;100033.56;;;20.66;70.05
70133;BME280;57495;49.922;7.966;2022-08-01T06:06:52;100038.81;;;20.68;70.80
70133;BME280;57495;49.922;7.966;2022-08-01T06:08:55;100030.44;;;20.70;70.30
70133;BME280;57495;49.922;7.966;2022-08-01T06:10:57;100037.75;;;20.69;70.92
70133;BME280;57495;49.922;7.966;2022-08-01T06:12:58;100034.84;;;20.97;71.77
70133;BME280;57495;49.922;7.966;2022-08-01T06:15:03;100041.72;;;21.00;69.12
70133;BME280;57495;49.922;7.966;2022-08-01T06:17:05;100043.41;;;20.81;69.70
70133;BME280;57495;49.922;7.966;2022-08-01T06:19:06;100044.25;;;20.81;70.07
70133;BME280;57495;49.922;7.966;2022-08-01T06:21:07;100047.81;;;20.95;69.80
70133;BME280;57495;49.922;7.966;2022-08-01T06:23:09;100045.28;;;21.14;68.71
70133;BME280;57495;49.922;7.966;2022-08-01T06:25:12;100047.31;;;21.38;68.12
70133;BME280;57495;49.922;7.966;2022-08-01T06:27:13;100050.44;;;21.49;66.44
70133;BME280;57495;49.922;7.966;2022-08-01T06:29:14;100047.09;;;21.60;66.73
70133;BME280;57495;49.922;7.966;2022-08-01T06:31:16;100055.53;;;21.97;65.10
70133;BME280;57495;49.922;7.966;2022-08-01T06:33:17;100054.03;;;22.01;64.17
70133;BME280;57495;49.922;7.966;2022-08-01T06:35:19;100053.06;;;22.27;64.87
70133;BME280;57495;49.922;7.966;2022-08-01T06:37:20;100057.25;;;22.30;63.38
70133;BME280;57495;49.922;7.966;2022-08-01T06:39:22;100048.84;;;22.31;63.38
70133;BME280;57495;49.922;7.966;2022-08-01T06:41:24;100045.16;;;22.12;63.63
70133;BME280;57495;49.922;7.966;2022-08-01T06:43:26;100048.69;;;22.19;63.79
70133;BME280;57495;49.922;7.966;2022-08-01T06:45:27;100058.09;;;22.62;63.73
70133;BME280;57495;49.922;7.966;2022-08-01T06:47:29;100059.09;;;22.68;62.82
70133;BME280;57495;49.922;7.966;2022-08-01T06:49:30;100060.66;;;22.50;63.32
70133;BME280;57495;49.922;7.966;2022-08-01T06:51:32;100057.34;;;22.48;63.37
70133;BME280;57495;49.922;7.966;2022-08-01T06:53:33;100058.03;;;22.69;63.08
70133;BME280;57495;49.922;7.966;2022-08-01T06:55:35;100061.34;;;22.71;62.32
70133;BME280;57495;49.922;7.966;2022-08-01T06:57:45;100055.53;;;22.67;61.96
70133;BME280;57495;49.922;7.966;2022-08-01T06:59:46;100045.91;;;22.65;62.53
70133;BME280;57495;49.922;7.966;2022-08-01T07:01:47;100050.31;;;22.66;62.93
70133;BME280;57495;49.922;7.966;2022-08-01T07:03:49;100052.47;;;22.82;62.10
70133;BME280;57495;49.922;7.966;2022-08-01T07:05:51;100045.97;;;22.83;62.25
70133;BME280;57495;49.922;7.966;2022-08-01T07:07:53;100043.00;;;22.85;62.17
70133;BME280;57495;49.922;7.966;2022-08-01T07:09:55;100039.06;;;23.06;61.39
70133;BME280;57495;49.922;7.966;2022-08-01T07:11:56;100040.91;;;23.12;61.74
70133;BME280;57495;49.922;7.966;2022-08-01T07:13:59;100030.78;;;23.56;60.88
70133;BME280;57495;49.922;7.966;2022-08-01T07:16:01;100028.03;;;23.93;59.77
70133;BME280;57495;49.922;7.966;2022-08-01T07:18:02;100024.00;;;23.96;57.92
70133;BME280;57495;49.922;7.966;2022-08-01T07:20:06;100032.69;;;24.35;58.50
70133;BME280;57495;49.922;7.966;2022-08-01T07:22:08;100036.13;;;24.00;56.89
70133;BME280;57495;49.922;7.966;2022-08-01T07:24:11;100035.88;;;24.31;56.41
70133;BME280;57495;49.922;7.966;2022-08-01T07:26:13;100038.28;;;24.70;56.44
70133;BME280;57495;49.922;7.966;2022-08-01T07:28:14;100031.66;;;24.47;57.01
70133;BME280;57495;49.922;7.966;2022-08-01T07:30:17;100024.28;;;24.90;55.71
70133;BME280;57495;49.922;7.966;2022-08-01T07:32:19;100029.03;;;24.83;55.16
70133;BME280;57495;49.922;7.966;2022-08-01T07:34:20;100028.44;;;24.81;54.99
70133;BME280;57495;49.922;7.966;2022-08-01T07:36:22;100025.97;;;24.49;56.43
70133;BME280;57495;49.922;7.966;2022-08-01T07:38:24;100026.88;;;24.73;55.95
70133;BME280;57495;49.922;7.966;2022-08-01T07:40:25;100023.78;;;24.81;55.63
70133;BME280;57495;49.922;7.966;2022-08-01T07:42:27;100026.78;;;24.92;55.82
70133;BME280;57495;49.922;7.966;2022-08-01T07:44:28;100023.31;;;24.84;55.75
70133;BME280;57495;49.922;7.966;2022-08-01T07:46:31;100020.00;;;24.82;55.64
70133;BME280;57495;49.922;7.966;2022-08-01T07:48:32;100027.25;;;24.88;56.07
70133;BME280;57495;49.922;7.966;2022-08-01T07:50:34;100025.59;;;24.87;55.00
70133;BME280;57495;49.922;7.966;2022-08-01T07:52:35;100024.38;;;24.60;55.20
70133;BME280;57495;49.922;7.966;2022-08-01T07:54:37;100026.44;;;24.46;55.82
70133;BME280;57495;49.922;7.966;2022-08-01T07:56:38;100027.38;;;24.51;55.95
70133;BME280;57495;49.922;7.966;2022-08-01T07:58:39;100031.88;;;24.34;56.99
70133;BME280;57495;49.922;7.966;2022-08-01T08:00:41;100034.63;;;24.34;56.79
70133;BME280;57495;49.922;7.966;2022-08-01T08:02:44;100036.78;;;24.44;56.51
70133;BME280;57495;49.922;7.966;2022-08-01T08:04:45;100034.34;;;23.93;58.13
70133;BME280;57495;49.922;7.966;2022-08-01T08:06:47;100030.44;;;24.01;57.89
70133;BME280;57495;49.922;7.966;2022-08-01T08:08:49;100041.91;;;23.73;58.67
70133;BME280;57495;49.922;7.966;2022-08-01T08:10:50;100039.88;;;23.87;58.87
70133;BME280;57495;49.922;7.966;2022-08-01T08:12:52;100035.72;;;23.84;59.49
70133;BME280;57495;49.922;7.966;2022-08-01T08:14:53;100035.91;;;24.01;59.64
70133;BME280;57495;49.922;7.966;2022-08-01T08:16:54;100043.50;;;23.99;58.21
70133;BME280;57495;49.922;7.966;2022-08-01T08:18:57;100045.31;;;24.05;57.89
70133;BME280;57495;49.922;7.966;2022-08-01T08:20:58;100046.63;;;24.03;57.71
70133;BME280;57495;49.922;7.966;2022-08-01T08:23:00;100041.34;;;24.20;58.04
70133;BME280;57495;49.922;7.966;2022-08-01T08:25:22;100038.06;;;24.72;56.98
70133;BME280;57495;49.922;7.966;2022-08-01T08:27:23;100041.03;;;24.94;55.69
70133;BME280;57495;49.922;7.966;2022-08-01T08:29:25;100029.72;;;25.37;54.89
70133;BME280;57495;49.922;7.966;2022-08-01T08:31:27;100037.13;;;25.49;53.28
70133;BME280;57495;49.922;7.966;2022-08-01T08:33:29;100043.69;;;25.36;53.72
70133;BME280;57495;49.922;7.966;2022-08-01T08:35:32;100047.81;;;25.15;54.23
70133;BME280;57495;49.922;7.966;2022-08-01T08:37:34;100042.22;;;25.09;55.07
70133;BME280;57495;49.922;7.966;2022-08-01T08:39:36;100031.41;;;25.38;54.93
70133;BME280;57495;49.922;7.966;2022-08-01T08:41:37;100040.34;;;25.34;54.70
70133;BME280;57495;49.922;7.966;2022-08-01T08:43:39;100041.59;;;24.72;54.45
70133;BME280;57495;49.922;7.966;2022-08-01T08:45:40;100036.41;;;24.40;56.06
70133;BME280;57495;49.922;7.966;2022-08-01T08:47:43;100030.75;;;24.54;56.38
70133;BME280;57495;49.922;7.966;2022-08-01T08:49:48;100034.00;;;24.74;55.90
70133;BME280;57495;49.922;7.966;2022-08-01T08:51:52;100030.91;;;24.70;55.23
70133;BME280;57495;49.922;7.966;2022-08-01T08:53:55;100031.16;;;24.81;55.18
70133;BME280;57495;49.922;7.966;2022-08-01T08:55:57;100027.56;;;24.68;55.87
70133;BME280;57495;49.922;7.966;2022-08-01T08:57:58;100025.22;;;24.84;55.11
70133;BME280;57495;49.922;7.966;2022-08-01T09:00:03;100021.28;;;25.15;54.91
70133;BME280;57495;49.922;7.966;2022-08-01T09:02:04;100019.28;;;25.34;53.40
70133;BME280;57495;49.922;7.966;2022-08-01T09:04:06;100018.03;;;25.65;53.22
70133;BME280;57495;49.922;7.966;2022-08-01T09:06:07;100030.72;;;25.31;53.59
70133;BME280;57495;49.922;7.966;2022-08-01T09:08:11;100027.47;;;25.22;53.71
70133;BME280;57495;49.922;7.966;2022-08-01T09:10:13;100026.75;;;25.15;53.35
70133;BME280;57495;49.922;7.966;2022-08-01T09:12:16;100021.66;;;25.83;52.73
70133;BME280;57495;49.922;7.966;2022-08-01T09:14:18;100021.28;;;26.20;51.05
70133;BME280;57495;49.922;7.966;2022-08-01T09:16:24;100016.22;;;26.74;50.32
70133;BME280;57495;49.922;7.966;2022-08-01T09:18:30;100021.97;;;27.46;48.67
70133;BME280;57495;49.922;7.966;2022-08-01T09:20:32;100011.66;;;28.29;47.75
70133;BME280;57495;49.922;7.966;2022-08-01T09:22:35;100010.75;;;28.51;45.20
70133;BME280;57495;49.922;7.966;2022-08-01T09:24:41;100020.53;;;29.01;45.07
70133;BME280;57495;49.922;7.966;2022-08-01T09:26:42;100010.75;;;29.16;44.11
70133;BME280;57495;49.922;7.966;2022-08-01T09:28:46;100010.50;;;29.80;43.02
70133;BME280;57495;49.922;7.966;2022-08-01T09:30:47;100013.03;;;29.97;41.28
70133;BME280;57495;49.922;7.966;2022-08-01T09:32:53;100011.09;;;29.87;42.19
70133;BME280;57495;49.922;7.966;2022-08-01T09:34:55;100014.72;;;30.14;41.69
70133;BME280;57495;49.922;7.966;2022-08-01T09:36:59;100018.88;;;29.48;42.71
70133;BME280;57495;49.922;7.966;2022-08-01T09:39:11;100022.94;;;28.55;43.95
70133;BME280;57495;49.922;7.966;2022-08-01T09:41:15;100031.13;;;27.95;45.50
70133;BME280;57495;49.922;7.966;2022-08-01T09:43:17;100027.28;;;27.74;45.67
70133;BME280;57495;49.922;7.966;2022-08-01T09:45:31;100027.00;;;27.76;46.20
70133;BME280;57495;49.922;7.966;2022-08-01T09:47:37;100025.41;;;27.58;46.48
70133;BME280;57495;49.922;7.966;2022-08-01T09:49:40;100024.44;;;27.47;46.59
70133;BME280;57495;49.922;7.966;2022-08-01T09:51:41;100023.66;;;27.30;46.91
70133;BME280;57495;49.922;7.966;2022-08-01T09:53:44;100024.69;;;28.12;45.71
70133;BME280;57495;49.922;7.966;2022-08-01T09:55:45;100022.63;;;28.89;43.72
70133;BME280;57495;49.922;7.966;2022-08-01T09:57:55;100025.97;;;28.91;42.52
70133;BME280;57495;49.922;7.966;2022-08-01T10:00:00;100013.38;;;29.48;43.20
70133;BME280;57495;49.922;7.966;2022-08-01T10:02:01;100008.97;;;29.47;43.28
70133;BME280;57495;49.922;7.966;2022-08-01T10:04:08;100013.56;;;29.94;41.80
70133;BME280;57495;49.922;7.966;2022-08-01T10:06:20;100011.41;;;30.22;40.13
70133;BME280;57495;49.922;7.966;2022-08-01T10:08:22;100007.28;;;30.19;39.27
70133;BME280;57495;49.922;7.966;2022-08-01T10:10:26;100013.13;;;30.54;39.89
70133;BME280;57495;49.922;7.966;2022-08-01T10:12:27;100011.75;;;31.02;38.73
70133;BME280;57495;49.922;7.966;2022-08-01T10:14:31;100011.75;;;30.67;38.88
70133;BME280;57495;49.922;7.966;2022-08-01T10:16:33;100010.88;;;30.25;38.72
70133;BME280;57495;49.922;7.966;2022-08-01T10:18:36;100005.97;;;30.48;39.18
70133;BME280;57495;49.922;7.966;2022-08-01T10:20:38;100002.34;;;30.78;38.69
70133;BME280;57495;49.922;7.966;2022-08-01T10:22:40;99997.25;;;31.47;37.95
70133;BME280;57495;49.922;7.966;2022-08-01T10:24:43;100000.13;;;30.85;38.26
70133;BME280;57495;49.922;7.966;2022-08-01T10:26:47;99992.97;;;30.84;38.11
70133;BME280;57495;49.922;7.966;2022-08-01T10:28:49;99991.03;;;30.90;37.71
70133;BME280;57495;49.922;7.966;2022-08-01T10:30:53;99987.09;;;31.27;36.65
70133;BME280;57495;49.922;7.966;2022-08-01T10:32:55;99991.06;;;30.69;37.59
70133;BME280;57495;49.922;7.966;2022-08-01T10:34:57;99989.59;;;30.05;40.14
70133;BME280;57495;49.922;7.966;2022-08-01T10:36:59;99984.06;;;29.90;39.70
70133;BME280;57495;49.922;7.966;2022-08-01T10:39:01;99982.94;;;29.91;39.23
70133;BME280;57495;49.922;7.966;2022-08-01T10:41:04;99984.34;;;29.98;38.92
70133;BME280;57495;49.922;7.966;2022-08-01T10:43:06;99982.03;;;29.69;40.11
70133;BME280;57495;49.922;7.966;2022-08-01T10:45:09;99986.91;;;28.99;41.12
70133;BME280;57495;49.922;7.966;2022-08-01T10:47:13;99989.97;;;29.03;41.59
70133;BME280;57495;49.922;7.966;2022-08-01T10:49:17;99986.38;;;28.32;41.96